createdAt,value
2022-09-10T00:02:54.301Z,1008.1
2022-09-10T00:07:54.225Z,1008.1
2022-09-10T00:12:54.233Z,1008.1
2022-09-10T00:17:54.211Z,1008.1
2022-09-10T00:22:54.239Z,1008.1
2022-09-10T00:27:54.223Z,1008.1
2022-09-10T00:32:54.230Z,1008.0
2022-09-10T00:37:54.240Z,1008.1
2022-09-10T00:42:54.234Z,1008.0
2022-09-10T00:47:54.237Z,1008.1
2022-09-10T00:52:54.245Z,1008.2
2022-09-10T00:57:54.226Z,1008.2
2022-09-10T01:02:54.246Z,1008.3
2022-09-10T01:07:54.241Z,1008.3
2022-09-10T01:12:54.251Z,1008.3
2022-09-10T01:17:54.236Z,1008.3
2022-09-10T01:22:54.244Z,1008.4
2022-09-10T01:27:54.240Z,1008.5
2022-09-10T01:32:54.250Z,1008.5
2022-09-10T01:37:54.241Z,1008.5
2022-09-10T01:42:54.253Z,1008.5
2022-09-10T01:47:54.245Z,1008.6
2022-09-10T01:52:54.263Z,1008.6
2022-09-10T01:57:54.262Z,1008.7
2022-09-10T02:02:54.247Z,1008.7
2022-09-10T02:07:54.270Z,1008.6
2022-09-10T02:12:54.245Z,1008.7
2022-09-10T02:17:54.273Z,1008.7
2022-09-10T02:22:54.261Z,1008.7
2022-09-10T02:27:54.258Z,1008.7
2022-09-10T02:32:54.282Z,1008.7
2022-09-10T02:37:54.270Z,1008.9
2022-09-10T02:42:54.271Z,1008.9
2022-09-10T02:52:54.278Z,1008.9
2022-09-10T02:57:54.276Z,1008.9
2022-09-10T03:02:54.282Z,1008.9
2022-09-10T03:07:54.285Z,1008.9
2022-09-10T03:12:54.287Z,1008.9
2022-09-10T03:17:54.282Z,1009.0
2022-09-10T03:22:54.280Z,1009.0
2022-09-10T03:27:54.296Z,1009.1
2022-09-10T03:32:54.283Z,1009.0
2022-09-10T03:37:54.287Z,1009.0
2022-09-10T03:42:54.299Z,1009.1
2022-09-10T03:47:54.300Z,1009.0
2022-09-10T03:52:54.282Z,1009.1
2022-09-10T03:57:54.320Z,1009.1
2022-09-10T04:02:54.288Z,1009.1
2022-09-10T04:07:54.305Z,1009.1
2022-09-10T04:12:54.305Z,1009.2
2022-09-10T04:17:54.287Z,1009.3
2022-09-10T04:22:54.296Z,1009.3
2022-09-10T04:27:54.298Z,1009.3
2022-09-10T04:32:54.295Z,1009.4
2022-09-10T04:37:54.303Z,1009.4
2022-09-10T04:42:54.292Z,1009.5
2022-09-10T04:47:54.334Z,1009.6
2022-09-10T04:52:54.324Z,1009.6
2022-09-10T04:57:54.300Z,1009.6
2022-09-10T05:02:54.316Z,1009.6
2022-09-10T05:07:54.315Z,1009.6
2022-09-10T05:12:54.317Z,1009.7
2022-09-10T05:17:54.312Z,1009.8
2022-09-10T05:22:54.317Z,1009.8
2022-09-10T05:27:54.331Z,1009.9
2022-09-10T05:32:54.310Z,1009.9
2022-09-10T05:37:54.318Z,1010.0
2022-09-10T05:42:54.329Z,1010.0
2022-09-10T05:47:54.337Z,1010.1
2022-09-10T05:52:54.331Z,1010.2
2022-09-10T05:57:54.331Z,1010.3
2022-09-10T06:02:54.464Z,1010.3
2022-09-10T06:07:54.335Z,1010.4
2022-09-10T06:12:54.327Z,1010.4
2022-09-10T06:17:54.331Z,1010.5
2022-09-10T06:22:54.397Z,1010.5
2022-09-10T06:27:54.332Z,1010.6
2022-09-10T06:32:54.359Z,1010.7
2022-09-10T06:37:54.356Z,1010.7
2022-09-10T06:42:54.341Z,1010.8
2022-09-10T06:52:54.352Z,1010.8
2022-09-10T06:57:54.351Z,1010.9
2022-09-10T07:02:54.346Z,1010.9
2022-09-10T07:07:54.336Z,1011.0
2022-09-10T07:12:54.465Z,1011.1
2022-09-10T07:17:54.361Z,1011.1
2022-09-10T07:22:54.348Z,1011.2
2022-09-10T07:27:54.342Z,1011.2
2022-09-10T07:32:54.350Z,1011.3
2022-09-10T07:37:54.332Z,1011.4
2022-09-10T07:42:54.372Z,1011.5
2022-09-10T07:47:54.350Z,1011.6
2022-09-10T07:52:54.343Z,1011.6
2022-09-10T07:57:58.273Z,1011.7
2022-09-10T08:02:54.369Z,1011.7
2022-09-10T08:07:54.354Z,1011.8
2022-09-10T08:12:54.347Z,1011.8
2022-09-10T08:17:54.354Z,1011.8
2022-09-10T08:22:54.464Z,1011.8
2022-09-10T08:27:54.340Z,1011.8
2022-09-10T08:32:54.363Z,1011.9
2022-09-10T08:37:54.359Z,1012.0
2022-09-10T08:42:54.355Z,1012.1
2022-09-10T08:47:54.356Z,1012.2
2022-09-10T08:52:54.365Z,1012.2
2022-09-10T08:57:54.370Z,1012.2
2022-09-10T09:02:54.397Z,1012.3
2022-09-10T09:07:54.361Z,1012.3
2022-09-10T09:12:54.346Z,1012.3
2022-09-10T09:17:54.362Z,1012.4
2022-09-10T09:22:54.399Z,1012.4
2022-09-10T09:28:09.712Z,1012.5
2022-09-10T09:32:54.367Z,1012.6
2022-09-10T09:37:54.465Z,1012.6
2022-09-10T09:42:54.404Z,1012.7
2022-09-10T09:47:54.361Z,1012.7
2022-09-10T09:52:54.368Z,1012.8
2022-09-10T09:57:54.362Z,1012.9
2022-09-10T10:02:54.354Z,1012.9
2022-09-10T10:07:54.363Z,1012.9
2022-09-10T10:12:54.360Z,1012.9
2022-09-10T10:17:54.370Z,1013.1
2022-09-10T10:22:54.357Z,1013.1
2022-09-10T10:27:54.390Z,1013.1
2022-09-10T10:32:54.366Z,1013.1
2022-09-10T10:37:54.366Z,1013.2
2022-09-10T10:42:54.395Z,1013.2
2022-09-10T10:47:54.369Z,1013.2
2022-09-10T10:52:54.367Z,1013.2
2022-09-10T10:57:54.362Z,1013.2
2022-09-10T11:02:54.377Z,1013.2
2022-09-10T11:07:54.377Z,1013.2
2022-09-10T11:12:54.357Z,1013.2
2022-09-10T11:17:54.370Z,1013.2
2022-09-10T11:22:54.376Z,1013.2
2022-09-10T11:27:54.378Z,1013.2
2022-09-10T11:32:54.385Z,1013.2
2022-09-10T11:37:54.421Z,1013.2
2022-09-10T11:42:54.388Z,1013.2
2022-09-10T11:47:54.374Z,1013.2
2022-09-10T11:52:54.385Z,1013.3
2022-09-10T11:57:54.379Z,1013.3
2022-09-10T12:02:54.389Z,1013.4
2022-09-10T12:07:54.367Z,1013.4
2022-09-10T12:12:54.393Z,1013.4
2022-09-10T12:17:54.375Z,1013.4
2022-09-10T12:22:54.376Z,1013.3
2022-09-10T12:27:54.391Z,1013.3
2022-09-10T12:32:54.391Z,1013.4
2022-09-10T12:37:54.386Z,1013.4
2022-09-10T13:07:54.380Z,1013.7
2022-09-10T13:12:54.391Z,1013.6
2022-09-10T13:17:54.407Z,1013.6
2022-09-10T13:22:54.401Z,1013.6
2022-09-10T13:27:54.392Z,1013.6
2022-09-10T13:32:54.408Z,1013.6
2022-09-10T13:37:54.387Z,1013.5
2022-09-10T13:42:54.397Z,1013.6
2022-09-10T13:47:54.408Z,1013.5
2022-09-10T13:52:54.402Z,1013.6
2022-09-10T13:57:54.404Z,1013.6
2022-09-10T14:02:54.415Z,1013.6
2022-09-10T14:07:54.446Z,1013.6
2022-09-10T14:12:54.392Z,1013.6
2022-09-10T14:17:54.431Z,1013.6
2022-09-10T14:22:54.397Z,1013.5
2022-09-10T14:27:55.453Z,1013.6
2022-09-10T14:32:54.410Z,1013.6
2022-09-10T14:37:54.407Z,1013.6
2022-09-10T14:42:54.364Z,1013.6
2022-09-10T14:47:54.409Z,1013.6
2022-09-10T14:52:54.413Z,1013.6
2022-09-10T14:57:54.414Z,1013.6
2022-09-10T15:02:54.400Z,1013.7
2022-09-10T15:07:54.387Z,1013.7
2022-09-10T15:12:54.368Z,1013.7
2022-09-10T15:17:54.375Z,1013.7
2022-09-10T15:27:54.410Z,1013.8
2022-09-10T15:32:54.409Z,1013.9
2022-09-10T15:37:54.421Z,1014.0
2022-09-10T15:42:54.408Z,1014.0
2022-09-10T15:47:54.418Z,1014.0
2022-09-10T15:52:54.425Z,1014.0
2022-09-10T15:57:54.415Z,1014.1
2022-09-10T16:02:54.497Z,1014.1
2022-09-10T16:07:54.413Z,1014.0
2022-09-10T16:12:54.448Z,1014.1
2022-09-10T16:17:54.418Z,1014.1
2022-09-10T16:22:54.407Z,1014.2
2022-09-10T16:27:54.431Z,1014.2
2022-09-10T16:32:54.409Z,1014.2
2022-09-10T16:37:54.450Z,1014.2
2022-09-10T16:42:54.426Z,1014.3
2022-09-10T16:47:54.428Z,1014.3
2022-09-10T16:52:54.411Z,1014.3
2022-09-10T16:57:54.423Z,1014.4
2022-09-10T17:02:54.457Z,1014.4
2022-09-10T17:07:54.425Z,1014.4
2022-09-10T17:12:54.473Z,1014.5
2022-09-10T17:17:54.430Z,1014.5
2022-09-10T17:22:54.445Z,1014.6
2022-09-10T17:27:54.449Z,1014.7
2022-09-10T17:32:54.442Z,1014.7
2022-09-10T17:37:54.436Z,1014.7
2022-09-10T17:42:54.449Z,1014.8
2022-09-10T17:47:54.441Z,1014.8
2022-09-10T17:52:54.455Z,1014.9
2022-09-10T17:57:54.451Z,1014.9
2022-09-10T18:02:54.553Z,1014.9
2022-09-10T18:07:54.451Z,1015.0
2022-09-10T18:12:58.351Z,1015.0
2022-09-10T18:17:54.450Z,1015.1
2022-09-10T18:22:54.459Z,1015.2
2022-09-10T18:27:54.455Z,1015.2
2022-09-10T18:32:54.452Z,1015.3
2022-09-10T18:37:54.463Z,1015.4
2022-09-10T18:42:54.460Z,1015.4
2022-09-10T18:47:54.463Z,1015.4
2022-09-10T18:52:54.447Z,1015.4
2022-09-10T18:57:54.467Z,1015.5
2022-09-10T19:02:54.470Z,1015.6
2022-09-10T19:07:54.465Z,1015.6
2022-09-10T19:12:54.473Z,1015.7
2022-09-10T19:17:54.461Z,1015.7
2022-09-10T19:22:54.489Z,1015.7
2022-09-10T19:27:54.470Z,1015.7
2022-09-10T19:32:54.482Z,1015.7
2022-09-10T19:37:54.512Z,1015.8
2022-09-10T19:42:54.469Z,1015.8
2022-09-10T19:47:54.488Z,1015.8
2022-09-10T19:52:54.486Z,1015.8
2022-09-10T19:57:54.481Z,1015.8
2022-09-10T20:02:54.495Z,1015.9
2022-09-10T20:07:54.485Z,1015.9
2022-09-10T20:12:54.486Z,1015.9
2022-09-10T20:17:54.496Z,1015.9
2022-09-10T20:22:54.568Z,1015.9
2022-09-10T20:27:54.494Z,1015.9
2022-09-10T20:32:54.487Z,1015.9
2022-09-10T20:37:54.573Z,1015.9
2022-09-10T20:42:54.488Z,1015.9
2022-09-10T20:47:54.497Z,1016.0
2022-09-10T20:52:54.500Z,1016.1
2022-09-10T20:57:54.488Z,1016.1
2022-09-10T21:02:54.514Z,1016.1
2022-09-10T21:07:54.529Z,1016.1
2022-09-10T21:12:54.514Z,1016.1
2022-09-10T21:17:54.503Z,1016.2
2022-09-10T21:22:54.507Z,1016.2
2022-09-10T21:27:54.524Z,1016.2
2022-09-10T21:32:54.598Z,1016.2
2022-09-10T21:37:54.497Z,1016.2
2022-09-10T21:42:54.530Z,1016.3
2022-09-10T21:47:54.523Z,1016.3
2022-09-10T21:52:54.552Z,1016.4
2022-09-10T21:57:54.510Z,1016.4
2022-09-10T22:02:54.525Z,1016.4
2022-09-10T22:07:54.526Z,1016.4
2022-09-10T22:12:54.508Z,1016.4
2022-09-10T22:17:54.520Z,1016.3
2022-09-10T22:22:54.510Z,1016.4
2022-09-10T22:27:54.520Z,1016.4
2022-09-10T22:32:54.538Z,1016.5
2022-09-10T22:37:54.598Z,1016.5
2022-09-10T22:42:54.519Z,1016.6
2022-09-10T22:47:54.531Z,1016.7
2022-09-10T22:52:54.527Z,1016.7
2022-09-10T22:57:54.530Z,1016.7
2022-09-10T23:02:54.547Z,1016.6
2022-09-10T23:07:54.526Z,1016.6
2022-09-10T23:12:54.533Z,1016.6
2022-09-10T23:17:54.550Z,1016.7
2022-09-10T23:22:54.570Z,1016.7
2022-09-10T23:27:54.535Z,1016.7
2022-09-10T23:32:54.530Z,1016.7
2022-09-10T23:37:54.521Z,1016.7
2022-09-10T23:42:54.549Z,1016.6
2022-09-10T23:47:54.532Z,1016.6
2022-09-10T23:52:54.557Z,1016.6
2022-09-10T23:57:54.518Z,1016.6
